sensor_id;sensor_type;location;lat;lon;timestamp;pressure;altitude;pressure_sealevel;temperature;humidity
49216;BME280;45943;53.148;8.204;2023-04-01T00:00:56;99385.59;;;13.20;100.00
49216;BME280;45943;53.148;8.204;2023-04-01T00:03:24;99385.59;;;13.20;100.00
49216;BME280;45943;53.148;8.204;2023-04-01T00:05:55;99387.72;;;13.33;100.00
49216;BME280;45943;53.148;8.204;2023-04-01T00:08:22;99387.56;;;13.27;100.00
49216;BME280;45943;53.148;8.204;2023-04-01T00:10:48;99384.75;;;13.12;100.00
49216;BME280;45943;53.148;8.204;2023-04-01T00:13:14;99389.97;;;13.13;100.00
49216;BME280;45943;53.148;8.204;2023-04-01T00:15:40;99382.25;;;13.10;100.00
49216;BME280;45943;53.148;8.204;2023-04-01T00:18:07;99385.47;;;13.06;100.00
49216;BME280;45943;53.148;8.204;2023-04-01T00:20:34;99391.66;;;13.14;100.00
49216;BME280;45943;53.148;8.204;2023-04-01T00:23:00;99388.13;;;13.22;100.00
49216;BME280;45943;53.148;8.204;2023-04-01T00:25:26;99385.59;;;13.20;100.00
49216;BME280;45943;53.148;8.204;2023-04-01T00:27:52;99391.78;;;13.29;100.00
49216;BME280;45943;53.148;8.204;2023-04-01T00:30:18;99386.06;;;13.24;100.00
49216;BME280;45943;53.148;8.204;2023-04-01T00:32:44;99381.22;;;13.11;100.00
49216;BME280;45943;53.148;8.204;2023-04-01T00:35:10;99387.09;;;13.15;100.00
49216;BME280;45943;53.148;8.204;2023-04-01T00:37:38;99390.53;;;13.01;100.00
49216;BME280;45943;53.148;8.204;2023-04-01T00:40:07;99388.47;;;13.11;100.00
49216;BME280;45943;53.148;8.204;2023-04-01T00:42:46;99387.31;;;13.05;100.00
49216;BME280;45943;53.148;8.204;2023-04-01T00:45:23;99383.94;;;13.19;100.00
49216;BME280;45943;53.148;8.204;2023-04-01T00:47:52;99382.03;;;13.28;100.00
49216;BME280;45943;53.148;8.204;2023-04-01T00:50:19;99384.88;;;13.27;100.00
49216;BME280;45943;53.148;8.204;2023-04-01T00:52:48;99391.66;;;13.23;100.00
49216;BME280;45943;53.148;8.204;2023-04-01T00:55:14;99382.25;;;13.10;100.00
49216;BME280;45943;53.148;8.204;2023-04-01T00:57:42;99384.63;;;13.05;100.00
49216;BME280;45943;53.148;8.204;2023-04-01T01:00:12;99388.13;;;13.14;100.00
49216;BME280;45943;53.148;8.204;2023-04-01T01:02:41;99383.75;;;13.13;100.00
49216;BME280;45943;53.148;8.204;2023-04-01T01:05:11;99383.38;;;13.24;100.00
49216;BME280;45943;53.148;8.204;2023-04-01T01:07:45;99387.25;;;13.30;100.00
49216;BME280;45943;53.148;8.204;2023-04-01T01:10:26;99389.09;;;13.29;100.00
49216;BME280;45943;53.148;8.204;2023-04-01T01:13:17;99388.41;;;13.27;100.00
49216;BME280;45943;53.148;8.204;2023-04-01T01:15:53;99389.59;;;13.16;100.00
49216;BME280;45943;53.148;8.204;2023-04-01T01:22:17;99383.75;;;13.21;100.00
49216;BME280;45943;53.148;8.204;2023-04-01T01:27:21;99384.38;;;13.31;100.00
49216;BME280;45943;53.148;8.204;2023-04-01T01:29:59;99383.19;;;13.26;100.00
49216;BME280;45943;53.148;8.204;2023-04-01T01:38:13;99387.63;;;13.10;100.00
49216;BME280;45943;53.148;8.204;2023-04-01T01:40:43;99386.09;;;13.16;100.00
49216;BME280;45943;53.148;8.204;2023-04-01T01:43:14;99389.28;;;13.28;100.00
49216;BME280;45943;53.148;8.204;2023-04-01T01:45:49;99393.50;;;13.22;100.00
49216;BME280;45943;53.148;8.204;2023-04-01T01:48:20;99388.28;;;13.20;100.00
49216;BME280;45943;53.148;8.204;2023-04-01T01:50:48;99386.91;;;13.25;100.00
49216;BME280;45943;53.148;8.204;2023-04-01T01:53:16;99388.13;;;13.22;100.00
49216;BME280;45943;53.148;8.204;2023-04-01T01:55:45;99385.06;;;13.25;100.00
49216;BME280;45943;53.148;8.204;2023-04-01T02:00:46;99389.59;;;13.25;100.00
49216;BME280;45943;53.148;8.204;2023-04-01T02:03:16;99393.88;;;13.03;100.00
49216;BME280;45943;53.148;8.204;2023-04-01T02:05:45;99394.88;;;13.10;100.00
49216;BME280;45943;53.148;8.204;2023-04-01T02:08:13;99394.84;;;13.18;100.00
49216;BME280;45943;53.148;8.204;2023-04-01T02:10:49;99393.84;;;13.19;100.00
49216;BME280;45943;53.148;8.204;2023-04-01T02:13:24;99394.00;;;13.17;100.00
49216;BME280;45943;53.148;8.204;2023-04-01T02:15:57;99397.53;;;13.18;100.00
49216;BME280;45943;53.148;8.204;2023-04-01T02:18:28;99399.75;;;13.06;100.00
49216;BME280;45943;53.148;8.204;2023-04-01T02:20:56;99398.59;;;13.09;100.00
49216;BME280;45943;53.148;8.204;2023-04-01T02:23:24;99405.03;;;12.91;100.00
49216;BME280;45943;53.148;8.204;2023-04-01T02:25:51;99405.03;;;12.91;100.00
49216;BME280;45943;53.148;8.204;2023-04-01T02:28:17;99403.44;;;13.13;100.00
49216;BME280;45943;53.148;8.204;2023-04-01T02:30:45;99403.81;;;13.02;100.00
49216;BME280;45943;53.148;8.204;2023-04-01T02:33:15;99405.31;;;13.05;100.00
49216;BME280;45943;53.148;8.204;2023-04-01T02:35:42;99405.97;;;13.07;100.00
49216;BME280;45943;53.148;8.204;2023-04-01T02:38:09;99407.00;;;13.06;100.00
49216;BME280;45943;53.148;8.204;2023-04-01T02:41:08;99403.13;;;13.08;100.00
49216;BME280;45943;53.148;8.204;2023-04-01T02:43:28;99412.16;;;13.15;100.00
49216;BME280;45943;53.148;8.204;2023-04-01T02:45:54;99412.72;;;13.11;100.00
49216;BME280;45943;53.148;8.204;2023-04-01T02:48:20;99415.22;;;13.12;100.00
49216;BME280;45943;53.148;8.204;2023-04-01T02:50:46;99412.84;;;13.17;100.00
49216;BME280;45943;53.148;8.204;2023-04-01T02:53:12;99410.31;;;13.16;100.00
49216;BME280;45943;53.148;8.204;2023-04-01T02:55:38;99413.38;;;13.05;100.00
49216;BME280;45943;53.148;8.204;2023-04-01T02:58:04;99407.81;;;13.06;100.00
49216;BME280;45943;53.148;8.204;2023-04-01T03:00:30;99418.47;;;13.00;100.00
49216;BME280;45943;53.148;8.204;2023-04-01T03:02:56;99419.63;;;13.05;100.00
49216;BME280;45943;53.148;8.204;2023-04-01T03:05:22;99427.56;;;12.99;100.00
49216;BME280;45943;53.148;8.204;2023-04-01T03:07:48;99418.94;;;13.03;100.00
49216;BME280;45943;53.148;8.204;2023-04-01T03:10:14;99427.72;;;12.97;100.00
49216;BME280;45943;53.148;8.204;2023-04-01T03:12:40;99421.81;;;13.02;100.00
49216;BME280;45943;53.148;8.204;2023-04-01T03:15:08;99430.06;;;13.08;100.00
49216;BME280;45943;53.148;8.204;2023-04-01T03:17:37;99431.00;;;13.15;100.00
49216;BME280;45943;53.148;8.204;2023-04-01T03:20:04;99426.31;;;13.17;100.00
49216;BME280;45943;53.148;8.204;2023-04-01T03:22:30;99430.84;;;13.17;100.00
49216;BME280;45943;53.148;8.204;2023-04-01T03:24:56;99437.13;;;13.09;100.00
49216;BME280;45943;53.148;8.204;2023-04-01T03:27:22;99426.31;;;13.17;100.00
49216;BME280;45943;53.148;8.204;2023-04-01T03:29:49;99439.28;;;13.14;100.00
49216;BME280;45943;53.148;8.204;2023-04-01T03:32:15;99433.22;;;13.20;100.00
49216;BME280;45943;53.148;8.204;2023-04-01T03:34:41;99435.56;;;13.15;100.00
49216;BME280;45943;53.148;8.204;2023-04-01T03:37:07;99430.00;;;13.25;100.00
49216;BME280;45943;53.148;8.204;2023-04-01T03:39:33;99433.84;;;13.30;100.00
49216;BME280;45943;53.148;8.204;2023-04-01T03:41:59;99436.88;;;13.27;100.00
49216;BME280;45943;53.148;8.204;2023-04-01T03:44:25;99443.31;;;13.18;100.00
49216;BME280;45943;53.148;8.204;2023-04-01T03:46:51;99440.94;;;13.23;100.00
49216;BME280;45943;53.148;8.204;2023-04-01T03:49:17;99438.78;;;13.10;100.00
49216;BME280;45943;53.148;8.204;2023-04-01T03:51:43;99444.28;;;13.17;100.00
49216;BME280;45943;53.148;8.204;2023-04-01T03:54:10;99445.84;;;13.11;100.00
49216;BME280;45943;53.148;8.204;2023-04-01T03:56:36;99445.03;;;13.19;100.00
49216;BME280;45943;53.148;8.204;2023-04-01T03:59:04;99441.44;;;13.18;100.00
49216;BME280;45943;53.148;8.204;2023-04-01T04:01:31;99445.03;;;13.19;100.00
49216;BME280;45943;53.148;8.204;2023-04-01T04:03:57;99449.03;;;13.15;100.00
49216;BME280;45943;53.148;8.204;2023-04-01T04:06:23;99455.78;;;13.19;100.00
49216;BME280;45943;53.148;8.204;2023-04-01T04:08:50;99451.72;;;13.23;100.00
49216;BME280;45943;53.148;8.204;2023-04-01T04:11:16;99449.19;;;13.30;100.00
49216;BME280;45943;53.148;8.204;2023-04-01T04:13:43;99457.75;;;13.25;100.00
49216;BME280;45943;53.148;8.204;2023-04-01T04:16:10;99455.94;;;13.17;100.00
49216;BME280;45943;53.148;8.204;2023-04-01T04:18:36;99455.59;;;13.20;100.00
49216;BME280;45943;53.148;8.204;2023-04-01T04:21:03;99459.31;;;13.19;100.00
49216;BME280;45943;53.148;8.204;2023-04-01T04:23:29;99465.19;;;13.15;100.00
49216;BME280;45943;53.148;8.204;2023-04-01T04:25:56;99468.25;;;13.20;100.00
49216;BME280;45943;53.148;8.204;2023-04-01T04:28:26;99465.53;;;13.20;100.00
49216;BME280;45943;53.148;8.204;2023-04-01T04:30:53;99468.38;;;13.18;100.00
49216;BME280;45943;53.148;8.204;2023-04-01T04:33:20;99461.31;;;13.17;100.00
49216;BME280;45943;53.148;8.204;2023-04-01T04:35:47;99468.25;;;13.20;100.00
49216;BME280;45943;53.148;8.204;2023-04-01T04:38:13;99472.09;;;13.17;100.00
49216;BME280;45943;53.148;8.204;2023-04-01T04:40:40;99483.00;;;13.24;100.00
49216;BME280;45943;53.148;8.204;2023-04-01T04:43:06;99475.59;;;13.26;100.00
49216;BME280;45943;53.148;8.204;2023-04-01T04:45:35;99481.13;;;13.33;100.00
49216;BME280;45943;53.148;8.204;2023-04-01T04:48:01;99478.97;;;13.28;100.00
49216;BME280;45943;53.148;8.204;2023-04-01T04:50:27;99482.19;;;13.24;100.00
49216;BME280;45943;53.148;8.204;2023-04-01T04:52:53;99486.72;;;13.23;100.00
49216;BME280;45943;53.148;8.204;2023-04-01T04:55:19;99494.63;;;13.25;100.00
49216;BME280;45943;53.148;8.204;2023-04-01T04:57:46;99496.81;;;13.29;100.00
49216;BME280;45943;53.148;8.204;2023-04-01T05:00:12;99495.28;;;13.27;100.00
49216;BME280;45943;53.148;8.204;2023-04-01T05:02:38;99494.63;;;13.16;100.00
49216;BME280;45943;53.148;8.204;2023-04-01T05:05:04;99490.13;;;13.01;100.00
49216;BME280;45943;53.148;8.204;2023-04-01T05:07:30;99503.06;;;13.13;100.00
49216;BME280;45943;53.148;8.204;2023-04-01T05:09:56;99506.94;;;13.19;100.00
49216;BME280;45943;53.148;8.204;2023-04-01T05:12:22;99506.59;;;13.22;100.00
49216;BME280;45943;53.148;8.204;2023-04-01T05:14:48;99504.72;;;13.14;100.00
49216;BME280;45943;53.148;8.204;2023-04-01T05:17:14;99513.00;;;13.21;100.00
49216;BME280;45943;53.148;8.204;2023-04-01T05:19:40;99514.00;;;13.20;100.00
49216;BME280;45943;53.148;8.204;2023-04-01T05:22:06;99518.53;;;13.11;100.00
49216;BME280;45943;53.148;8.204;2023-04-01T05:24:32;99514.47;;;13.15;100.00
49216;BME280;45943;53.148;8.204;2023-04-01T05:26:59;99514.00;;;13.12;100.00
49216;BME280;45943;53.148;8.204;2023-04-01T05:29:25;99520.69;;;13.16;100.00
49216;BME280;45943;53.148;8.204;2023-04-01T05:31:51;99516.53;;;13.22;100.00
49216;BME280;45943;53.148;8.204;2023-04-01T05:34:17;99518.84;;;13.16;100.00
49216;BME280;45943;53.148;8.204;2023-04-01T05:36:44;99521.72;;;13.15;100.00
49216;BME280;45943;53.148;8.204;2023-04-01T05:39:10;99523.41;;;13.24;100.00
49216;BME280;45943;53.148;8.204;2023-04-01T05:41:37;99528.44;;;13.27;100.00
49216;BME280;45943;53.148;8.204;2023-04-01T05:44:04;99529.31;;;13.28;100.00
49216;BME280;45943;53.148;8.204;2023-04-01T05:46:30;99529.47;;;13.18;100.00
49216;BME280;45943;53.148;8.204;2023-04-01T05:48:57;99532.16;;;13.18;100.00
49216;BME280;45943;53.148;8.204;2023-04-01T05:51:23;99531.47;;;13.16;100.00
49216;BME280;45943;53.148;8.204;2023-04-01T05:53:49;99542.09;;;13.17;100.00
49216;BME280;45943;53.148;8.204;2023-04-01T05:56:15;99540.94;;;13.04;100.00
49216;BME280;45943;53.148;8.204;2023-04-01T05:58:41;99539.72;;;13.14;100.00
49216;BME280;45943;53.148;8.204;2023-04-01T06:01:09;99539.56;;;13.16;100.00
49216;BME280;45943;53.148;8.204;2023-04-01T06:03:36;99545.13;;;13.23;100.00
49216;BME280;45943;53.148;8.204;2023-04-01T06:06:02;99547.63;;;13.16;100.00
49216;BME280;45943;53.148;8.204;2023-04-01T06:08:31;99554.03;;;13.15;100.00
49216;BME280;45943;53.148;8.204;2023-04-01T06:13:40;99556.38;;;13.26;100.00
49216;BME280;45943;53.148;8.204;2023-04-01T06:16:30;99557.22;;;13.27;100.00
49216;BME280;45943;53.148;8.204;2023-04-01T06:25:21;99567.16;;;13.26;100.00
49216;BME280;45943;53.148;8.204;2023-04-01T06:34:08;99575.41;;;13.25;100.00
49216;BME280;45943;53.148;8.204;2023-04-01T06:36:20;99582.31;;;13.27;100.00
49216;BME280;45943;53.148;8.204;2023-04-01T06:47:18;99591.91;;;13.30;100.00
49216;BME280;45943;53.148;8.204;2023-04-01T06:57:58;99603.81;;;13.43;100.00
49216;BME280;45943;53.148;8.204;2023-04-01T07:00:33;99597.31;;;13.30;100.00
49216;BME280;45943;53.148;8.204;2023-04-01T07:03:05;99605.38;;;13.30;100.00
49216;BME280;45943;53.148;8.204;2023-04-01T07:05:32;99610.03;;;13.44;100.00
49216;BME280;45943;53.148;8.204;2023-04-01T07:08:01;99613.25;;;13.47;100.00
49216;BME280;45943;53.148;8.204;2023-04-01T07:11:04;99616.28;;;13.44;100.00
49216;BME280;45943;53.148;8.204;2023-04-01T07:13:34;99621.47;;;13.46;100.00
49216;BME280;45943;53.148;8.204;2023-04-01T07:19:12;99631.28;;;13.47;100.00
49216;BME280;45943;53.148;8.204;2023-04-01T07:21:46;99634.47;;;13.51;100.00
49216;BME280;45943;53.148;8.204;2023-04-01T07:24:18;99638.00;;;13.43;100.00
49216;BME280;45943;53.148;8.204;2023-04-01T07:26:49;99642.25;;;13.37;100.00
49216;BME280;45943;53.148;8.204;2023-04-01T07:29:19;99641.88;;;13.40;100.00
49216;BME280;45943;53.148;8.204;2023-04-01T07:34:25;99648.28;;;13.47;100.00
49216;BME280;45943;53.148;8.204;2023-04-01T07:40:12;99657.69;;;13.43;100.00
49216;BME280;45943;53.148;8.204;2023-04-01T07:42:27;99660.03;;;13.46;100.00
49216;BME280;45943;53.148;8.204;2023-04-01T07:45:11;99662.72;;;13.46;100.00
49216;BME280;45943;53.148;8.204;2023-04-01T07:50:32;99670.66;;;13.48;100.00
49216;BME280;45943;53.148;8.204;2023-04-01T07:53:09;99669.94;;;13.70;100.00
49216;BME280;45943;53.148;8.204;2023-04-01T07:55:50;99670.59;;;13.72;100.00
49216;BME280;45943;53.148;8.204;2023-04-01T08:12:21;99695.19;;;13.77;100.00
49216;BME280;45943;53.148;8.204;2023-04-01T08:18:20;99699.56;;;13.87;100.00
49216;BME280;45943;53.148;8.204;2023-04-01T08:20:37;99710.34;;;13.87;100.00
49216;BME280;45943;53.148;8.204;2023-04-01T08:23:19;99711.13;;;13.95;100.00
49216;BME280;45943;53.148;8.204;2023-04-01T08:28:41;99717.22;;;13.97;100.00
49216;BME280;45943;53.148;8.204;2023-04-01T08:31:12;99719.56;;;14.00;100.00
49216;BME280;45943;53.148;8.204;2023-04-01T08:33:44;99720.59;;;13.91;100.00
49216;BME280;45943;53.148;8.204;2023-04-01T08:36:17;99727.69;;;13.76;100.00
49216;BME280;45943;53.148;8.204;2023-04-01T08:44:49;99733.91;;;13.85;100.00
49216;BME280;45943;53.148;8.204;2023-04-01T08:48:12;99746.25;;;13.71;100.00
49216;BME280;45943;53.148;8.204;2023-04-01T09:01:48;99751.09;;;13.92;100.00
49216;BME280;45943;53.148;8.204;2023-04-01T09:07:57;99755.28;;;13.94;100.00
49216;BME280;45943;53.148;8.204;2023-04-01T09:15:30;99766.72;;;14.13;100.00
49216;BME280;45943;53.148;8.204;2023-04-01T09:35:06;99792.25;;;14.41;100.00
49216;BME280;45943;53.148;8.204;2023-04-01T09:40:14;99800.38;;;14.25;100.00
49216;BME280;45943;53.148;8.204;2023-04-01T09:42:49;99802.94;;;14.26;100.00
49216;BME280;45943;53.148;8.204;2023-04-01T09:45:23;99809.50;;;14.16;100.00
49216;BME280;45943;53.148;8.204;2023-04-01T09:50:35;99821.78;;;14.90;100.00
49216;BME280;45943;53.148;8.204;2023-04-01T09:53:14;99824.59;;;15.05;100.00
49216;BME280;45943;53.148;8.204;2023-04-01T10:53:18;99925.56;;;13.07;100.00
49216;BME280;45943;53.148;8.204;2023-04-01T11:12:38;99949.97;;;13.05;100.00
49216;BME280;45943;53.148;8.204;2023-04-01T11:15:16;99952.81;;;13.04;100.00
49216;BME280;45943;53.148;8.204;2023-04-01T11:18:08;99962.94;;;12.76;100.00
49216;BME280;45943;53.148;8.204;2023-04-01T11:20:49;99964.22;;;12.98;100.00
49216;BME280;45943;53.148;8.204;2023-04-01T11:29:19;99977.22;;;12.76;100.00
49216;BME280;45943;53.148;8.204;2023-04-01T11:37:53;100002.75;;;12.28;100.00
49216;BME280;45943;53.148;8.204;2023-04-01T12:08:40;100060.53;;;12.24;100.00
49216;BME280;45943;53.148;8.204;2023-04-01T12:11:57;100064.41;;;12.40;100.00
49216;BME280;45943;53.148;8.204;2023-04-01T12:28:02;100083.44;;;12.28;100.00
49216;BME280;45943;53.148;8.204;2023-04-01T12:36:32;100108.84;;;11.61;100.00
49216;BME280;45943;53.148;8.204;2023-04-01T12:55:59;100137.09;;;11.65;100.00
49216;BME280;45943;53.148;8.204;2023-04-01T13:12:57;100161.69;;;11.80;100.00
49216;BME280;45943;53.148;8.204;2023-04-01T13:21:31;100186.81;;;11.79;100.00
49216;BME280;45943;53.148;8.204;2023-04-01T13:29:38;100190.38;;;11.80;100.00
49216;BME280;45943;53.148;8.204;2023-04-01T13:32:54;100196.09;;;12.04;100.00
49216;BME280;45943;53.148;8.204;2023-04-01T13:35:28;100199.81;;;11.93;100.00
49216;BME280;45943;53.148;8.204;2023-04-01T13:38:13;100207.91;;;11.84;100.00
49216;BME280;45943;53.148;8.204;2023-04-01T13:43:34;100216.97;;;11.83;100.00
49216;BME280;45943;53.148;8.204;2023-04-01T13:51:46;100226.00;;;11.91;100.00
49216;BME280;45943;53.148;8.204;2023-04-01T13:54:30;100230.00;;;12.15;100.00
49216;BME280;45943;53.148;8.204;2023-04-01T13:57:22;100228.31;;;12.14;100.00
49216;BME280;45943;53.148;8.204;2023-04-01T14:00:10;100253.75;;;11.72;100.00
49216;BME280;45943;53.148;8.204;2023-04-01T14:05:38;100257.84;;;11.67;100.00
49216;BME280;45943;53.148;8.204;2023-04-01T14:08:34;100257.88;;;11.47;100.00
49216;BME280;45943;53.148;8.204;2023-04-01T14:11:25;100262.66;;;11.73;100.00
49216;BME280;45943;53.148;8.204;2023-04-01T14:14:04;100272.72;;;11.81;100.00
49216;BME280;45943;53.148;8.204;2023-04-01T14:36:04;100310.44;;;11.60;100.00
49216;BME280;45943;53.148;8.204;2023-04-01T14:38:47;100320.78;;;11.35;100.00
49216;BME280;45943;53.148;8.204;2023-04-01T14:41:19;100313.13;;;11.60;100.00
49216;BME280;45943;53.148;8.204;2023-04-01T14:50:18;100331.25;;;11.38;100.00
49216;BME280;45943;53.148;8.204;2023-04-01T14:52:55;100333.78;;;11.49;100.00
49216;BME280;45943;53.148;8.204;2023-04-01T14:58:07;100351.00;;;11.18;100.00
49216;BME280;45943;53.148;8.204;2023-04-01T15:00:50;100354.00;;;11.44;100.00
49216;BME280;45943;53.148;8.204;2023-04-01T15:03:37;100351.88;;;11.76;100.00
49216;BME280;45943;53.148;8.204;2023-04-01T15:09:21;100374.66;;;11.43;100.00
49216;BME280;45943;53.148;8.204;2023-04-01T15:12:06;100373.94;;;11.32;100.00
49216;BME280;45943;53.148;8.204;2023-04-01T15:14:53;100373.88;;;11.03;100.00
49216;BME280;45943;53.148;8.204;2023-04-01T15:23:27;100399.00;;;10.61;100.00
49216;BME280;45943;53.148;8.204;2023-04-01T15:26:09;100401.47;;;10.74;100.00
49216;BME280;45943;53.148;8.204;2023-04-01T15:28:55;100406.13;;;10.72;100.00
49216;BME280;45943;53.148;8.204;2023-04-01T15:31:54;100416.69;;;11.04;100.00
49216;BME280;45943;53.148;8.204;2023-04-01T15:43:13;100450.72;;;11.04;100.00
49216;BME280;45943;53.148;8.204;2023-04-01T15:45:49;100449.59;;;10.66;100.00
49216;BME280;45943;53.148;8.204;2023-04-01T15:51:09;100459.03;;;10.70;100.00
49216;BME280;45943;53.148;8.204;2023-04-01T15:53:51;100458.81;;;10.73;100.00
49216;BME280;45943;53.148;8.204;2023-04-01T15:56:26;100463.56;;;10.70;100.00
49216;BME280;45943;53.148;8.204;2023-04-01T16:01:59;100479.78;;;10.68;100.00
49216;BME280;45943;53.148;8.204;2023-04-01T16:04:54;100490.81;;;10.44;100.00
49216;BME280;45943;53.148;8.204;2023-04-01T16:10:35;100501.06;;;10.60;100.00
49216;BME280;45943;53.148;8.204;2023-04-01T16:18:42;100524.13;;;10.62;100.00
49216;BME280;45943;53.148;8.204;2023-04-01T16:24:14;100527.38;;;10.45;100.00
49216;BME280;45943;53.148;8.204;2023-04-01T16:26:59;100535.00;;;10.29;100.00
49216;BME280;45943;53.148;8.204;2023-04-01T16:35:00;100547.59;;;9.74;100.00
49216;BME280;45943;53.148;8.204;2023-04-01T16:45:47;100567.34;;;10.48;100.00
49216;BME280;45943;53.148;8.204;2023-04-01T16:48:28;100577.91;;;10.29;100.00
49216;BME280;45943;53.148;8.204;2023-04-01T16:51:13;100587.72;;;10.40;100.00
49216;BME280;45943;53.148;8.204;2023-04-01T16:53:43;100590.47;;;10.49;100.00
49216;BME280;45943;53.148;8.204;2023-04-01T16:58:48;100608.91;;;10.75;100.00
49216;BME280;45943;53.148;8.204;2023-04-01T17:01:21;100608.63;;;10.78;100.00
49216;BME280;45943;53.148;8.204;2023-04-01T17:03:57;100616.19;;;10.52;100.00
49216;BME280;45943;53.148;8.204;2023-04-01T17:09:28;100636.25;;;9.48;100.00
49216;BME280;45943;53.148;8.204;2023-04-01T17:20:54;100666.19;;;9.76;100.00
49216;BME280;45943;53.148;8.204;2023-04-01T17:29:00;100680.53;;;9.41;100.00
49216;BME280;45943;53.148;8.204;2023-04-01T17:31:36;100687.38;;;9.68;100.00
49216;BME280;45943;53.148;8.204;2023-04-01T17:34:17;100691.59;;;9.26;100.00
49216;BME280;45943;53.148;8.204;2023-04-01T17:39:54;100713.75;;;9.50;100.00
49216;BME280;45943;53.148;8.204;2023-04-01T17:45:21;100722.59;;;9.28;100.00
49216;BME280;45943;53.148;8.204;2023-04-01T17:48:15;100723.41;;;9.06;100.00
49216;BME280;45943;53.148;8.204;2023-04-01T17:50:53;100739.25;;;9.20;100.00
49216;BME280;45943;53.148;8.204;2023-04-01T17:53:52;100741.91;;;9.56;100.00
49216;BME280;45943;53.148;8.204;2023-04-01T17:56:32;100747.75;;;9.72;100.00
49216;BME280;45943;53.148;8.204;2023-04-01T18:13:29;100793.22;;;9.49;100.00
49216;BME280;45943;53.148;8.204;2023-04-01T18:16:23;100796.97;;;9.36;100.00
49216;BME280;45943;53.148;8.204;2023-04-01T18:22:08;100817.09;;;9.17;100.00
49216;BME280;45943;53.148;8.204;2023-04-01T18:24:49;100821.44;;;10.11;100.00
49216;BME280;45943;53.148;8.204;2023-04-01T18:27:46;100825.09;;;10.21;100.00
49216;BME280;45943;53.148;8.204;2023-04-01T18:30:17;100826.47;;;10.49;100.00
49216;BME280;45943;53.148;8.204;2023-04-01T18:32:58;100831.72;;;10.40;100.00
49216;BME280;45943;53.148;8.204;2023-04-01T18:38:40;100847.47;;;10.44;100.00
49216;BME280;45943;53.148;8.204;2023-04-01T18:41:15;100855.72;;;10.30;100.00
49216;BME280;45943;53.148;8.204;2023-04-01T18:43:51;100864.47;;;10.21;100.00
49216;BME280;45943;53.148;8.204;2023-04-01T18:49:25;100875.69;;;10.15;100.00
49216;BME280;45943;53.148;8.204;2023-04-01T18:51:59;100879.28;;;9.91;100.00
49216;BME280;45943;53.148;8.204;2023-04-01T18:54:44;100890.53;;;10.19;100.00
49216;BME280;45943;53.148;8.204;2023-04-01T18:57:15;100896.16;;;10.16;100.00
49216;BME280;45943;53.148;8.204;2023-04-01T18:59:48;100899.13;;;10.35;100.00
49216;BME280;45943;53.148;8.204;2023-04-01T19:02:31;100900.13;;;10.34;100.00
49216;BME280;45943;53.148;8.204;2023-04-01T19:08:27;100913.81;;;10.07;100.00
49216;BME280;45943;53.148;8.204;2023-04-01T19:10:40;100920.31;;;9.92;100.00
49216;BME280;45943;53.148;8.204;2023-04-01T19:13:23;100934.03;;;10.11;100.00
49216;BME280;45943;53.148;8.204;2023-04-01T19:18:47;100941.44;;;9.72;100.00
49216;BME280;45943;53.148;8.204;2023-04-01T19:24:13;100955.66;;;10.32;100.00
49216;BME280;45943;53.148;8.204;2023-04-01T19:29:32;100965.44;;;9.98;100.00
49216;BME280;45943;53.148;8.204;2023-04-01T19:37:40;100977.69;;;9.89;100.00
49216;BME280;45943;53.148;8.204;2023-04-01T19:43:36;100988.56;;;9.64;100.00
49216;BME280;45943;53.148;8.204;2023-04-01T19:51:35;101012.41;;;9.67;100.00
49216;BME280;45943;53.148;8.204;2023-04-01T19:56:59;101012.97;;;9.59;100.00
49216;BME280;45943;53.148;8.204;2023-04-01T20:16:17;101065.84;;;9.32;100.00
49216;BME280;45943;53.148;8.204;2023-04-01T20:18:45;101080.66;;;9.25;100.00
49216;BME280;45943;53.148;8.204;2023-04-01T20:21:20;101078.41;;;9.68;100.00
49216;BME280;45943;53.148;8.204;2023-04-01T20:24:00;101085.16;;;9.61;100.00
49216;BME280;45943;53.148;8.204;2023-04-01T20:26:41;101089.91;;;9.57;100.00
49216;BME280;45943;53.148;8.204;2023-04-01T20:29:18;101093.06;;;9.75;100.00
49216;BME280;45943;53.148;8.204;2023-04-01T20:32:05;101098.56;;;9.97;100.00
49216;BME280;45943;53.148;8.204;2023-04-01T20:37:42;101105.13;;;9.93;100.00
49216;BME280;45943;53.148;8.204;2023-04-01T20:40:41;101113.41;;;9.77;100.00
49216;BME280;45943;53.148;8.204;2023-04-01T20:51:22;101141.25;;;9.13;100.00
49216;BME280;45943;53.148;8.204;2023-04-01T20:56:45;101138.03;;;9.08;100.00
49216;BME280;45943;53.148;8.204;2023-04-01T21:07:55;101164.81;;;9.46;100.00
49216;BME280;45943;53.148;8.204;2023-04-01T21:10:29;101173.56;;;9.48;100.00
49216;BME280;45943;53.148;8.204;2023-04-01T21:16:14;101188.47;;;9.39;100.00
49216;BME280;45943;53.148;8.204;2023-04-01T21:29:38;101205.50;;;8.73;100.00
49216;BME280;45943;53.148;8.204;2023-04-01T21:43:08;101229.44;;;9.02;100.00
49216;BME280;45943;53.148;8.204;2023-04-01T21:45:44;101239.91;;;8.65;100.00
49216;BME280;45943;53.148;8.204;2023-04-01T21:48:22;101257.78;;;8.91;100.00
49216;BME280;45943;53.148;8.204;2023-04-01T21:54:03;101255.56;;;9.11;100.00
49216;BME280;45943;53.148;8.204;2023-04-01T22:05:11;101286.59;;;8.74;100.00
49216;BME280;45943;53.148;8.204;2023-04-01T22:10:50;101286.66;;;9.26;100.00
49216;BME280;45943;53.148;8.204;2023-04-01T22:13:40;101294.97;;;9.09;100.00
49216;BME280;45943;53.148;8.204;2023-04-01T22:22:07;101317.13;;;8.14;100.00
49216;BME280;45943;53.148;8.204;2023-04-01T22:24:43;101329.16;;;8.50;100.00
49216;BME280;45943;53.148;8.204;2023-04-01T22:27:31;101328.75;;;8.97;100.00
49216;BME280;45943;53.148;8.204;2023-04-01T22:30:04;101340.50;;;8.53;100.00
49216;BME280;45943;53.148;8.204;2023-04-01T22:33:01;101340.50;;;8.68;100.00